Time,TemperatureF,DewpointF,PressureIn,WindDirection,WindDirectionDegrees,WindSpeedMPH,WindSpeedGustMPH,Humidity,HourlyPrecipIn,Conditions,Clouds,dailyrainin,SoftwareType,DateUTC
2013-07-19 00:11:00,71.1,69.0,30.07,ENE,69,0.0,0.0,93,0.00,,,0.00,weatherlink.com 1.10,2013-07-19 04:11:00,
2013-07-19 00:26:00,71.0,69.0,30.07,ENE,69,0.0,0.0,94,0.00,,,0.00,weatherlink.com 1.10,2013-07-19 04:26:00,
2013-07-19 00:41:00,71.0,69.0,30.07,ENE,69,0.0,0.0,94,0.00,,,0.00,weatherlink.com 1.10,2013-07-19 04:41:00,
2013-07-19 00:56:00,70.9,69.0,30.06,ENE,69,0.0,0.0,94,0.00,,,0.00,weatherlink.com 1.10,2013-07-19 04:56:00,
2013-07-19 01:11:00,70.7,69.0,30.06,ENE,69,0.0,0.0,94,0.00,,,0.00,weatherlink.com 1.10,2013-07-19 05:11:00,
2013-07-19 01:26:00,70.6,69.0,30.06,ENE,69,0.0,0.0,94,0.00,,,0.00,weatherlink.com 1.10,2013-07-19 05:26:00,
2013-07-19 01:41:00,70.7,69.0,30.06,ENE,69,0.0,0.0,94,0.00,,,0.00,weatherlink.com 1.10,2013-07-19 05:41:00,
2013-07-19 01:56:00,70.4,69.0,30.05,ENE,69,0.0,0.0,94,0.00,,,0.00,weatherlink.com 1.10,2013-07-19 05:56:00,
2013-07-19 02:11:00,70.2,69.0,30.05,ENE,69,0.0,0.0,94,0.00,,,0.00,weatherlink.com 1.10,2013-07-19 06:11:00,
2013-07-19 02:26:00,70.0,68.0,30.05,ENE,69,0.0,0.0,94,0.00,,,0.00,weatherlink.com 1.10,2013-07-19 06:26:00,
2013-07-19 02:41:00,69.9,68.0,30.05,ENE,69,0.0,0.0,94,0.00,,,0.00,weatherlink.com 1.10,2013-07-19 06:41:00,
2013-07-19 02:56:00,69.8,68.0,30.05,ENE,69,0.0,0.0,94,0.00,,,0.00,weatherlink.com 1.10,2013-07-19 06:56:00,
2013-07-19 03:11:00,69.6,68.0,30.04,ENE,69,0.0,0.0,94,0.00,,,0.00,weatherlink.com 1.10,2013-07-19 07:11:00,
2013-07-19 03:26:00,69.4,68.0,30.04,ENE,69,0.0,0.0,94,0.00,,,0.00,weatherlink.com 1.10,2013-07-19 07:26:00,
2013-07-19 03:41:00,69.1,67.0,30.04,ENE,69,0.0,0.0,94,0.00,,,0.00,weatherlink.com 1.10,2013-07-19 07:41:00,
2013-07-19 03:56:00,69.4,68.0,30.03,ENE,69,0.0,0.0,95,0.00,,,0.00,weatherlink.com 1.10,2013-07-19 07:56:00,
2013-07-19 04:11:00,69.2,68.0,30.04,ENE,69,0.0,0.0,95,0.00,,,0.00,weatherlink.com 1.10,2013-07-19 08:11:00,
2013-07-19 04:26:00,69.0,67.0,30.03,ENE,69,0.0,0.0,94,0.00,,,0.00,weatherlink.com 1.10,2013-07-19 08:26:00,
2013-07-19 04:41:00,68.8,67.0,30.03,ENE,69,0.0,0.0,95,0.00,,,0.00,weatherlink.com 1.10,2013-07-19 08:41:00,
2013-07-19 04:56:00,68.5,67.0,30.03,ENE,69,0.0,0.0,94,0.00,,,0.00,weatherlink.com 1.10,2013-07-19 08:56:00,
2013-07-19 05:11:00,68.3,67.0,30.03,ENE,69,0.0,0.0,95,0.00,,,0.00,weatherlink.com 1.10,2013-07-19 09:11:00,
2013-07-19 05:26:00,68.2,67.0,30.03,ENE,69,0.0,0.0,95,0.00,,,0.00,weatherlink.com 1.10,2013-07-19 09:26:00,
2013-07-19 05:41:00,68.1,67.0,30.03,ENE,69,0.0,0.0,95,0.00,,,0.00,weatherlink.com 1.10,2013-07-19 09:41:00,
2013-07-19 05:56:00,67.9,67.0,30.03,ENE,69,0.0,0.0,95,0.00,,,0.00,weatherlink.com 1.10,2013-07-19 09:56:00,
2013-07-19 06:11:00,67.9,67.0,30.03,ENE,69,0.0,0.0,95,0.00,,,0.00,weatherlink.com 1.10,2013-07-19 10:11:00,
2013-07-19 06:26:00,67.7,66.0,30.03,ENE,69,0.0,0.0,95,0.00,,,0.00,weatherlink.com 1.10,2013-07-19 10:26:00,
2013-07-19 06:41:00,67.7,66.0,30.03,ENE,69,0.0,0.0,95,0.00,,,0.00,weatherlink.com 1.10,2013-07-19 10:41:00,
2013-07-19 06:56:00,67.9,67.0,30.04,ENE,69,0.0,0.0,95,0.00,,,0.00,weatherlink.com 1.10,2013-07-19 10:56:00,
2013-07-19 07:11:00,68.6,67.0,30.04,ESE,115,0.0,0.0,95,0.00,,,0.00,weatherlink.com 1.10,2013-07-19 11:11:00,
2013-07-19 07:26:00,69.3,68.0,30.05,ESE,105,0.0,0.0,95,0.00,,,0.00,weatherlink.com 1.10,2013-07-19 11:26:00,
2013-07-19 07:41:00,70.3,69.0,30.05,East,95,0.0,0.0,95,0.00,,,0.00,weatherlink.com 1.10,2013-07-19 11:41:00,
2013-07-19 07:56:00,72.3,71.0,30.05,East,95,0.0,0.0,94,0.00,,,0.00,weatherlink.com 1.10,2013-07-19 11:56:00,
2013-07-19 08:11:00,73.7,72.0,30.05,East,95,0.0,0.0,93,0.00,,,0.00,weatherlink.com 1.10,2013-07-19 12:11:00,
2013-07-19 08:26:00,75.8,73.0,30.06,East,95,0.0,0.0,90,0.00,,,0.00,weatherlink.com 1.10,2013-07-19 12:26:00,
2013-07-19 08:41:00,77.1,73.0,30.06,South,185,0.0,0.0,87,0.00,,,0.00,weatherlink.com 1.10,2013-07-19 12:41:00,
2013-07-19 08:56:00,78.5,74.0,30.06,South,188,0.0,0.0,86,0.00,,,0.00,weatherlink.com 1.10,2013-07-19 12:56:00,
2013-07-19 09:11:00,79.0,74.0,30.06,South,182,0.0,0.0,85,0.00,,,0.00,weatherlink.com 1.10,2013-07-19 13:11:00,
2013-07-19 09:26:00,78.8,73.0,30.06,SW,221,0.0,0.0,83,0.00,,,0.00,weatherlink.com 1.10,2013-07-19 13:26:00,
2013-07-19 09:41:00,79.5,74.0,30.06,SW,219,0.0,0.0,84,0.00,,,0.00,weatherlink.com 1.10,2013-07-19 13:41:00,
2013-07-19 09:56:00,79.9,75.0,30.05,SSW,202,0.0,0.0,85,0.00,,,0.00,weatherlink.com 1.10,2013-07-19 13:56:00,
2013-07-19 10:11:00,80.8,75.0,30.05,WSW,257,0.0,0.0,82,0.00,,,0.00,weatherlink.com 1.10,2013-07-19 14:11:00,
2013-07-19 10:26:00,81.6,75.0,30.06,SE,128,0.0,0.0,79,0.00,,,0.00,weatherlink.com 1.10,2013-07-19 14:26:00,
2013-07-19 10:41:00,82.3,74.0,30.06,SW,215,0.0,0.0,75,0.00,,,0.00,weatherlink.com 1.10,2013-07-19 14:41:00,
2013-07-19 10:56:00,83.2,72.0,30.05,SSW,200,0.0,0.0,70,0.00,,,0.00,weatherlink.com 1.10,2013-07-19 14:56:00,
2013-07-19 11:11:00,82.4,73.0,30.06,SW,232,0.0,0.0,73,0.00,,,0.00,weatherlink.com 1.10,2013-07-19 15:11:00,
2013-07-19 11:27:00,83.5,74.0,30.06,WSW,248,0.0,0.0,72,0.00,,,0.00,weatherlink.com 1.10,2013-07-19 15:27:00,
2013-07-19 11:42:00,83.5,74.0,30.06,WSW,257,0.0,0.0,73,0.00,,,0.00,weatherlink.com 1.10,2013-07-19 15:42:00,
2013-07-19 11:57:00,84.1,74.0,30.05,WNW,284,0.0,0.0,72,0.00,,,0.00,weatherlink.com 1.10,2013-07-19 15:57:00,
2013-07-19 12:12:00,84.7,73.0,30.05,SW,221,0.0,0.0,69,0.00,,,0.00,weatherlink.com 1.10,2013-07-19 16:12:00,
2013-07-19 12:27:00,84.2,73.0,30.05,West,274,0.0,0.0,68,0.00,,,0.00,weatherlink.com 1.10,2013-07-19 16:27:00,
2013-07-19 12:42:00,85.0,72.0,30.04,SSW,202,0.0,0.0,66,0.00,,,0.00,weatherlink.com 1.10,2013-07-19 16:42:00,
2013-07-19 12:57:00,85.5,70.0,30.03,South,177,0.0,0.0,61,0.00,,,0.00,weatherlink.com 1.10,2013-07-19 16:57:00,
2013-07-19 13:12:00,85.8,72.0,30.03,SW,216,0.0,0.0,64,0.00,,,0.00,weatherlink.com 1.10,2013-07-19 17:12:00,
2013-07-19 13:27:00,85.9,71.0,30.02,SW,219,0.0,0.0,62,0.00,,,0.00,weatherlink.com 1.10,2013-07-19 17:27:00,
2013-07-19 13:42:00,86.4,74.0,30.02,SSW,192,0.0,0.0,67,0.00,,,0.00,weatherlink.com 1.10,2013-07-19 17:42:00,
2013-07-19 13:57:00,86.4,71.0,30.01,SW,229,0.0,0.0,60,0.00,,,0.00,weatherlink.com 1.10,2013-07-19 17:57:00,
2013-07-19 14:12:00,87.0,72.0,30.00,South,186,0.0,0.0,62,0.00,,,0.00,weatherlink.com 1.10,2013-07-19 18:12:00,
2013-07-19 14:27:00,86.6,72.0,30.00,SSE,161,0.0,0.0,62,0.00,,,0.00,weatherlink.com 1.10,2013-07-19 18:27:00,
2013-07-19 14:42:00,86.8,73.0,29.99,SE,136,0.0,0.0,63,0.00,,,0.00,weatherlink.com 1.10,2013-07-19 18:42:00,
2013-07-19 14:57:00,87.4,73.0,29.98,SSE,154,0.0,0.0,62,0.00,,,0.00,weatherlink.com 1.10,2013-07-19 18:57:00,
2013-07-19 15:12:00,87.3,72.0,29.98,SW,229,0.0,0.0,61,0.00,,,0.00,weatherlink.com 1.10,2013-07-19 19:12:00,
2013-07-19 15:27:00,87.7,71.0,29.97,SW,216,0.0,0.0,58,0.00,,,0.00,weatherlink.com 1.10,2013-07-19 19:27:00,
2013-07-19 15:42:00,87.9,73.0,29.97,SW,219,0.0,0.0,62,0.00,,,0.00,weatherlink.com 1.10,2013-07-19 19:42:00,
2013-07-19 15:57:00,87.9,72.0,29.96,SSW,192,0.0,0.0,59,0.00,,,0.00,weatherlink.com 1.10,2013-07-19 19:57:00,
2013-07-19 16:12:00,87.9,70.0,29.96,West,263,0.0,0.0,56,0.00,,,0.00,weatherlink.com 1.10,2013-07-19 20:12:00,
2013-07-19 16:27:00,88.2,72.0,29.96,SSW,194,0.0,0.0,59,0.00,,,0.00,weatherlink.com 1.10,2013-07-19 20:27:00,
2013-07-19 16:42:00,87.8,72.0,29.95,SW,221,0.0,0.0,60,0.00,,,0.00,weatherlink.com 1.10,2013-07-19 20:42:00,
2013-07-19 16:57:00,87.9,73.0,29.96,SW,217,0.0,0.0,61,0.00,,,0.00,weatherlink.com 1.10,2013-07-19 20:57:00,
2013-07-19 17:12:00,87.6,73.0,29.95,SW,232,0.0,0.0,62,0.00,,,0.00,weatherlink.com 1.10,2013-07-19 21:12:00,
2013-07-19 17:27:00,87.2,73.0,29.94,West,263,0.0,0.0,62,0.00,,,0.00,weatherlink.com 1.10,2013-07-19 21:27:00,
2013-07-19 17:42:00,87.0,74.0,29.94,South,171,0.0,0.0,65,0.00,,,0.00,weatherlink.com 1.10,2013-07-19 21:42:00,
2013-07-19 17:57:00,86.6,75.0,29.94,SW,229,0.0,0.0,68,0.00,,,0.00,weatherlink.com 1.10,2013-07-19 21:57:00,
2013-07-19 18:12:00,85.5,73.0,29.94,South,190,0.0,0.0,67,0.00,,,0.00,weatherlink.com 1.10,2013-07-19 22:12:00,
2013-07-19 18:27:00,85.1,74.0,29.94,SSW,195,0.0,0.0,69,0.00,,,0.00,weatherlink.com 1.10,2013-07-19 22:27:00,
2013-07-19 18:42:00,85.2,75.0,29.94,ESE,107,0.0,0.0,71,0.00,,,0.00,weatherlink.com 1.10,2013-07-19 22:42:00,
2013-07-19 18:57:00,84.5,75.0,29.94,WNW,286,0.0,0.0,72,0.00,,,0.00,weatherlink.com 1.10,2013-07-19 22:57:00,
2013-07-19 19:12:00,83.5,75.0,29.94,South,176,0.0,0.0,75,0.00,,,0.00,weatherlink.com 1.10,2013-07-19 23:12:00,
2013-07-19 19:27:00,82.9,75.0,29.94,SSW,202,0.0,0.0,76,0.00,,,0.00,weatherlink.com 1.10,2013-07-19 23:27:00,
2013-07-19 19:42:00,82.1,74.0,29.94,WSW,241,0.0,0.0,77,0.00,,,0.00,weatherlink.com 1.10,2013-07-19 23:42:00,
2013-07-19 19:57:00,81.6,74.0,29.94,WSW,238,0.0,0.0,77,0.00,,,0.00,weatherlink.com 1.10,2013-07-19 23:57:00,
2013-07-19 20:12:00,81.0,74.0,29.94,South,173,0.0,0.0,79,0.00,,,0.00,weatherlink.com 1.10,2013-07-20 00:12:00,
2013-07-19 20:28:00,80.5,73.0,29.95,SSE,165,0.0,0.0,79,0.00,,,0.00,weatherlink.com 1.10,2013-07-20 00:28:00,
2013-07-19 20:43:00,80.0,74.0,29.95,South,182,0.0,0.0,81,0.00,,,0.00,weatherlink.com 1.10,2013-07-20 00:43:00,
2013-07-19 20:58:00,78.6,73.0,29.95,South,182,0.0,0.0,84,0.00,,,0.00,weatherlink.com 1.10,2013-07-20 00:58:00,
2013-07-19 21:13:00,77.7,74.0,29.95,South,182,0.0,0.0,87,0.00,,,0.00,weatherlink.com 1.10,2013-07-20 01:13:00,
2013-07-19 21:28:00,77.8,73.0,29.95,South,182,0.0,0.0,86,0.00,,,0.00,weatherlink.com 1.10,2013-07-20 01:28:00,
2013-07-19 21:43:00,78.0,74.0,29.96,South,182,0.0,0.0,86,0.00,,,0.00,weatherlink.com 1.10,2013-07-20 01:43:00,
2013-07-19 21:58:00,77.3,73.0,29.96,South,182,0.0,0.0,87,0.00,,,0.00,weatherlink.com 1.10,2013-07-20 01:58:00,
2013-07-19 22:13:00,76.4,73.0,29.98,South,182,0.0,0.0,89,0.00,,,0.00,weatherlink.com 1.10,2013-07-20 02:13:00,
2013-07-19 22:28:00,75.8,73.0,29.98,South,182,0.0,0.0,90,0.00,,,0.00,weatherlink.com 1.10,2013-07-20 02:28:00,
2013-07-19 22:43:00,75.3,72.0,29.98,South,182,0.0,0.0,90,0.00,,,0.00,weatherlink.com 1.10,2013-07-20 02:43:00,
2013-07-19 22:58:00,75.1,72.0,29.99,South,182,0.0,0.0,91,0.00,,,0.00,weatherlink.com 1.10,2013-07-20 02:58:00,
2013-07-19 23:13:00,74.8,72.0,29.99,South,182,0.0,0.0,91,0.00,,,0.00,weatherlink.com 1.10,2013-07-20 03:13:00,
2013-07-19 23:28:00,74.8,72.0,29.99,South,182,0.0,0.0,92,0.00,,,0.00,weatherlink.com 1.10,2013-07-20 03:28:00,
2013-07-19 23:43:00,74.9,73.0,29.99,South,182,0.0,0.0,92,0.00,,,0.00,weatherlink.com 1.10,2013-07-20 03:43:00,
2013-07-19 23:58:00,75.7,73.0,29.99,South,182,0.0,0.0,91,0.00,,,0.00,weatherlink.com 1.10,2013-07-20 03:58:00,